createdAt,value
2022-09-27T00:00:11.709Z,0.00
2022-09-27T00:01:11.775Z,0.00
2022-09-27T00:02:11.794Z,0.00
2022-09-27T00:03:11.789Z,0.00
2022-09-27T00:04:11.675Z,0.00
2022-09-27T00:05:11.662Z,0.00
2022-09-27T00:06:11.642Z,0.00
2022-09-27T00:07:11.673Z,0.00
2022-09-27T00:08:11.621Z,0.00
2022-09-27T00:09:11.612Z,0.00
2022-09-27T00:10:11.605Z,0.00
2022-09-27T00:11:11.580Z,0.00
2022-09-27T00:12:11.723Z,0.00
2022-09-27T00:13:11.558Z,0.00
2022-09-27T00:14:11.543Z,0.00
2022-09-27T00:15:11.523Z,0.00
2022-09-27T00:16:11.572Z,0.00
2022-09-27T00:17:11.544Z,0.00
2022-09-27T00:18:11.480Z,0.00
2022-09-27T00:19:11.473Z,0.00
2022-09-27T00:20:11.476Z,0.00
2022-09-27T00:21:11.465Z,0.00
2022-09-27T00:22:11.499Z,0.00
2022-09-27T00:23:11.435Z,0.00
2022-09-27T00:24:11.449Z,0.00
2022-09-27T00:25:11.429Z,0.00
2022-09-27T00:26:11.425Z,0.00
2022-09-27T00:27:11.457Z,0.00
2022-09-27T00:28:11.385Z,0.00
2022-09-27T00:29:11.382Z,0.00
2022-09-27T00:30:11.352Z,0.00
2022-09-27T00:31:11.398Z,0.00
2022-09-27T00:32:11.397Z,0.00
2022-09-27T00:33:11.340Z,0.00
2022-09-27T00:34:11.326Z,0.00
2022-09-27T00:35:11.302Z,0.00
2022-09-27T00:36:11.305Z,0.00
2022-09-27T00:37:11.336Z,0.00
2022-09-27T00:38:11.281Z,0.00
2022-09-27T00:39:11.294Z,0.00
2022-09-27T00:40:13.175Z,0.00
2022-09-27T00:41:11.302Z,0.00
2022-09-27T00:42:11.273Z,0.00
2022-09-27T00:43:11.217Z,0.00
2022-09-27T00:44:11.213Z,0.00
2022-09-27T00:45:11.181Z,0.00
2022-09-27T00:46:11.249Z,0.00
2022-09-27T00:47:11.218Z,0.00
2022-09-27T00:48:11.156Z,0.00
2022-09-27T00:49:11.141Z,0.00
2022-09-27T00:50:11.131Z,0.00
2022-09-27T00:51:11.126Z,0.00
2022-09-27T00:52:11.156Z,0.00
2022-09-27T00:53:11.102Z,0.00
2022-09-27T00:54:11.107Z,0.00
2022-09-27T00:55:11.084Z,0.00
2022-09-27T00:56:11.093Z,0.00
2022-09-27T00:57:11.107Z,0.00
2022-09-27T00:58:11.045Z,0.00
2022-09-27T00:59:11.140Z,0.00
2022-09-27T01:00:11.028Z,0.00
2022-09-27T01:01:11.051Z,0.00
2022-09-27T01:02:11.078Z,0.00
2022-09-27T01:03:10.981Z,0.00
2022-09-27T01:04:10.983Z,0.00
2022-09-27T01:05:10.959Z,0.00
2022-09-27T01:06:10.978Z,0.00
2022-09-27T01:07:10.996Z,0.00
2022-09-27T01:08:10.939Z,0.00
2022-09-27T01:09:11.072Z,0.00
2022-09-27T01:10:10.920Z,0.00
2022-09-27T01:11:10.901Z,0.00
2022-09-27T01:12:10.930Z,0.00
2022-09-27T01:13:10.883Z,0.00
2022-09-27T01:14:10.871Z,0.00
2022-09-27T01:15:10.868Z,0.00
2022-09-27T01:16:10.879Z,0.00
2022-09-27T01:17:10.874Z,0.00
2022-09-27T01:18:10.813Z,0.00
2022-09-27T01:19:10.845Z,0.00
2022-09-27T01:20:10.781Z,0.00
2022-09-27T01:21:10.777Z,0.00
2022-09-27T01:22:10.802Z,0.00
2022-09-27T01:23:10.764Z,0.00
2022-09-27T01:24:10.783Z,0.00
2022-09-27T01:25:10.733Z,0.00
2022-09-27T01:26:10.741Z,0.00
2022-09-27T01:27:10.768Z,0.00
2022-09-27T01:28:10.697Z,0.00
2022-09-27T01:29:10.759Z,0.00
2022-09-27T01:30:10.676Z,0.00
2022-09-27T01:31:10.723Z,0.00
2022-09-27T01:32:10.717Z,0.00
2022-09-27T01:33:10.669Z,0.00
2022-09-27T01:34:10.628Z,0.00
2022-09-27T01:35:10.628Z,0.00
2022-09-27T01:36:10.620Z,0.00
2022-09-27T01:37:10.660Z,0.00
2022-09-27T01:38:10.605Z,0.00
2022-09-27T01:39:10.623Z,0.00
2022-09-27T01:40:10.584Z,0.00
2022-09-27T01:41:10.569Z,0.00
2022-09-27T01:42:12.949Z,0.00
2022-09-27T01:43:10.540Z,0.00
2022-09-27T01:44:10.526Z,0.00
2022-09-27T01:45:10.508Z,0.00
2022-09-27T01:46:10.560Z,0.00
2022-09-27T01:47:10.530Z,0.00
2022-09-27T01:48:10.478Z,0.00
2022-09-27T01:49:10.486Z,0.00
2022-09-27T01:50:10.441Z,0.00
2022-09-27T01:51:10.438Z,0.00
2022-09-27T01:52:10.468Z,0.00
2022-09-27T01:53:10.438Z,0.00
2022-09-27T01:54:10.394Z,0.00
2022-09-27T01:55:10.403Z,0.00
2022-09-27T01:56:10.398Z,0.00
2022-09-27T01:57:10.431Z,0.00
2022-09-27T01:58:10.380Z,0.00
2022-09-27T01:59:10.416Z,0.00
2022-09-27T02:00:10.331Z,0.00
2022-09-27T02:01:10.391Z,0.00
2022-09-27T02:02:10.437Z,0.00
2022-09-27T02:03:10.330Z,0.00
2022-09-27T02:04:10.297Z,0.00
2022-09-27T02:05:10.302Z,0.00
2022-09-27T02:06:12.549Z,0.00
2022-09-27T02:07:10.320Z,0.00
2022-09-27T02:08:10.240Z,0.00
2022-09-27T02:09:10.306Z,0.00
2022-09-27T02:10:10.244Z,0.00
2022-09-27T02:11:10.225Z,0.00
2022-09-27T02:12:10.249Z,0.00
2022-09-27T02:13:10.196Z,0.00
2022-09-27T02:14:10.198Z,0.00
2022-09-27T02:15:10.169Z,0.00
2022-09-27T02:16:10.191Z,0.00
2022-09-27T02:17:10.194Z,0.00
2022-09-27T02:18:10.140Z,0.00
2022-09-27T02:19:10.218Z,0.00
2022-09-27T02:20:10.103Z,0.00
2022-09-27T02:21:10.088Z,0.00
2022-09-27T02:22:10.120Z,0.00
2022-09-27T02:23:10.084Z,0.00
2022-09-27T02:24:10.083Z,0.00
2022-09-27T02:25:10.060Z,0.00
2022-09-27T02:26:10.057Z,0.00
2022-09-27T02:27:10.096Z,0.00
2022-09-27T02:28:10.040Z,0.00
2022-09-27T02:29:10.042Z,0.00
2022-09-27T02:30:09.991Z,0.00
2022-09-27T02:31:10.113Z,0.00
2022-09-27T02:32:10.031Z,0.00
2022-09-27T02:33:09.978Z,0.00
2022-09-27T02:34:09.963Z,0.00
2022-09-27T02:35:09.963Z,0.00
2022-09-27T02:36:09.944Z,0.00
2022-09-27T02:37:09.976Z,0.00
2022-09-27T02:38:09.925Z,0.00
2022-09-27T02:39:09.895Z,0.00
2022-09-27T02:40:09.896Z,0.00
2022-09-27T02:41:09.888Z,0.00
2022-09-27T02:42:09.913Z,0.00
2022-09-27T02:43:09.858Z,0.00
2022-09-27T02:44:09.848Z,0.00
2022-09-27T02:45:09.831Z,0.00
2022-09-27T02:46:09.888Z,0.00
2022-09-27T02:47:09.852Z,0.00
2022-09-27T02:48:09.795Z,0.00
2022-09-27T02:49:09.799Z,0.00
2022-09-27T02:50:09.770Z,0.00
2022-09-27T02:51:09.756Z,0.00
2022-09-27T02:52:09.785Z,0.00
2022-09-27T02:53:09.742Z,0.00
2022-09-27T02:54:09.759Z,0.00
2022-09-27T02:55:09.721Z,0.00
2022-09-27T02:56:09.718Z,0.00
2022-09-27T02:57:09.763Z,0.00
2022-09-27T02:58:09.693Z,0.00
2022-09-27T02:59:09.734Z,0.00
2022-09-27T03:00:09.661Z,0.00
2022-09-27T03:01:09.693Z,0.00
2022-09-27T03:02:13.376Z,0.00
2022-09-27T03:03:09.703Z,0.00
2022-09-27T03:04:09.614Z,0.00
2022-09-27T03:05:09.620Z,0.00
2022-09-27T03:06:09.593Z,0.00
2022-09-27T03:07:09.633Z,0.00
2022-09-27T03:08:09.580Z,0.00
2022-09-27T03:09:09.561Z,0.00
2022-09-27T03:10:09.554Z,0.00
2022-09-27T03:11:09.533Z,0.00
2022-09-27T03:12:09.573Z,0.00
2022-09-27T03:13:09.525Z,0.00
2022-09-27T03:14:09.601Z,0.00
2022-09-27T03:15:09.497Z,0.00
2022-09-27T03:16:09.477Z,0.00
2022-09-27T03:17:09.648Z,0.00
2022-09-27T03:18:09.454Z,0.00
2022-09-27T03:19:09.457Z,0.00
2022-09-27T03:20:09.416Z,0.00
2022-09-27T03:21:09.418Z,0.00
2022-09-27T03:22:09.452Z,0.00
2022-09-27T03:23:09.398Z,0.00
2022-09-27T03:24:09.393Z,0.00
2022-09-27T03:25:09.383Z,0.00
2022-09-27T03:26:12.856Z,0.00
2022-09-27T03:27:09.421Z,0.00
2022-09-27T03:28:09.358Z,0.00
2022-09-27T03:29:09.350Z,0.00
2022-09-27T03:30:09.338Z,0.00
2022-09-27T03:31:09.371Z,0.00
2022-09-27T03:32:09.347Z,0.00
2022-09-27T03:33:09.308Z,0.00
2022-09-27T03:34:09.280Z,0.00
2022-09-27T03:35:09.286Z,0.00
2022-09-27T03:36:09.238Z,0.00
2022-09-27T03:37:09.296Z,0.00
2022-09-27T03:38:09.233Z,0.00
2022-09-27T03:39:09.251Z,0.00
2022-09-27T03:40:09.230Z,0.00
2022-09-27T03:41:09.202Z,0.00
2022-09-27T03:42:09.243Z,0.00
2022-09-27T03:43:09.177Z,0.00
2022-09-27T03:44:09.178Z,0.00
2022-09-27T03:45:09.154Z,0.00
2022-09-27T03:46:09.192Z,0.00
2022-09-27T03:47:09.179Z,0.00
2022-09-27T03:48:09.112Z,0.00
2022-09-27T03:49:09.186Z,0.00
2022-09-27T03:50:09.094Z,0.00
2022-09-27T03:51:09.091Z,0.00
2022-09-27T03:52:09.130Z,0.00
2022-09-27T03:53:09.060Z,0.00
2022-09-27T03:54:09.060Z,0.00
2022-09-27T03:55:09.038Z,0.00
2022-09-27T03:56:09.031Z,0.00
2022-09-27T03:57:09.074Z,0.00
2022-09-27T03:58:09.009Z,0.00
2022-09-27T03:59:09.004Z,0.00
2022-09-27T04:00:09.065Z,0.00
2022-09-27T04:01:09.015Z,0.00
2022-09-27T04:02:09.020Z,0.00
2022-09-27T04:03:08.964Z,0.00
2022-09-27T04:04:11.191Z,0.00
2022-09-27T04:05:08.946Z,0.00
2022-09-27T04:06:08.923Z,0.00
2022-09-27T04:07:08.964Z,0.00
2022-09-27T04:08:08.896Z,0.00
2022-09-27T04:09:08.945Z,0.00
2022-09-27T04:10:08.876Z,0.00
2022-09-27T04:11:08.863Z,0.00
2022-09-27T04:12:08.888Z,0.00
2022-09-27T04:13:08.885Z,0.00
2022-09-27T04:14:08.847Z,0.00
2022-09-27T04:15:08.830Z,0.00
2022-09-27T04:16:08.821Z,0.00
2022-09-27T04:17:08.909Z,0.00
2022-09-27T04:18:08.782Z,0.00
2022-09-27T04:19:08.873Z,0.00
2022-09-27T04:20:08.761Z,0.00
2022-09-27T04:21:08.773Z,0.00
2022-09-27T04:22:08.760Z,0.00
2022-09-27T04:23:08.719Z,0.00
2022-09-27T04:24:08.738Z,0.00
2022-09-27T04:25:08.706Z,0.00
2022-09-27T04:26:08.705Z,4.00
2022-09-27T04:27:08.741Z,4.00
2022-09-27T04:28:08.678Z,4.00
2022-09-27T04:29:08.718Z,0.00
2022-09-27T04:30:08.656Z,4.00
2022-09-27T04:31:08.715Z,4.00
2022-09-27T04:32:08.667Z,4.00
2022-09-27T04:33:08.635Z,8.00
2022-09-27T04:34:08.608Z,8.00
2022-09-27T04:35:08.596Z,8.00
2022-09-27T04:36:08.585Z,4.00
2022-09-27T04:37:08.624Z,8.00
2022-09-27T04:38:08.560Z,8.00
2022-09-27T04:39:08.640Z,8.00
2022-09-27T04:40:08.540Z,12.00
2022-09-27T04:41:08.525Z,16.00
2022-09-27T04:42:08.551Z,24.00
2022-09-27T04:43:08.500Z,28.00
2022-09-27T04:44:08.503Z,36.00
2022-09-27T04:45:08.500Z,44.00
2022-09-27T04:46:08.564Z,52.00
2022-09-27T04:47:08.540Z,60.00
2022-09-27T04:48:08.447Z,68.00
2022-09-27T04:49:08.536Z,76.00
2022-09-27T04:50:08.418Z,88.00
2022-09-27T04:51:08.434Z,108.00
2022-09-27T04:52:08.427Z,136.00
2022-09-27T04:53:08.370Z,160.00
2022-09-27T04:54:08.372Z,184.00
2022-09-27T04:55:08.364Z,208.00
2022-09-27T04:56:08.355Z,228.00
2022-09-27T04:57:08.391Z,252.00
2022-09-27T04:58:08.336Z,268.00
2022-09-27T04:59:09.894Z,276.00
2022-09-27T05:00:08.327Z,276.00
2022-09-27T05:01:08.331Z,284.00
2022-09-27T05:02:08.386Z,292.00
2022-09-27T05:03:08.282Z,296.00
2022-09-27T05:04:08.253Z,300.00
2022-09-27T05:05:08.265Z,304.00
2022-09-27T05:06:08.234Z,312.00
2022-09-27T05:07:08.299Z,328.00
2022-09-27T05:08:08.223Z,340.00
2022-09-27T05:09:08.253Z,376.00
2022-09-27T05:10:08.232Z,424.00
2022-09-27T05:11:08.184Z,460.00
2022-09-27T05:12:08.202Z,476.00
2022-09-27T05:13:08.174Z,468.00
2022-09-27T05:14:08.174Z,488.00
2022-09-27T05:15:08.143Z,548.00
2022-09-27T05:16:08.155Z,664.00
2022-09-27T05:17:08.208Z,812.00
2022-09-27T05:18:08.100Z,956.00
2022-09-27T05:19:08.093Z,1088.00
2022-09-27T05:20:08.077Z,1192.00
2022-09-27T05:21:08.082Z,1276.00
2022-09-27T05:22:08.093Z,1360.00
2022-09-27T05:23:08.036Z,1444.00
2022-09-27T05:24:08.022Z,1544.00
2022-09-27T05:25:08.011Z,1636.00
2022-09-27T05:26:08.022Z,1696.00
2022-09-27T05:27:08.003Z,1740.00
2022-09-27T05:28:08.056Z,1812.00
2022-09-27T05:29:08.062Z,1948.00
2022-09-27T05:30:07.993Z,2160.00
2022-09-27T05:31:07.977Z,2388.00
2022-09-27T05:32:07.971Z,2580.00
2022-09-27T05:33:07.999Z,2728.00
2022-09-27T05:34:07.925Z,2848.00
2022-09-27T05:35:07.912Z,2952.00
2022-09-27T05:36:07.921Z,3004.00
2022-09-27T05:37:07.909Z,3084.00
2022-09-27T05:38:07.938Z,3272.00
2022-09-27T05:39:07.878Z,3512.00
2022-09-27T05:40:22.380Z,3708.00
2022-09-27T05:41:08.911Z,3852.00
2022-09-27T05:42:07.837Z,3952.00
2022-09-27T05:43:07.868Z,3916.00
2022-09-27T05:44:07.827Z,3772.00
2022-09-27T05:45:07.810Z,3684.00
2022-09-27T05:46:07.847Z,3840.00
2022-09-27T05:47:07.795Z,4132.00
2022-09-27T05:48:07.829Z,4332.00
2022-09-27T05:49:07.751Z,4460.00
2022-09-27T05:50:07.746Z,4440.00
2022-09-27T05:51:07.745Z,4336.00
2022-09-27T05:52:10.073Z,4192.00
2022-09-27T05:53:07.743Z,3968.00
2022-09-27T05:54:07.693Z,3676.00
2022-09-27T05:55:07.715Z,3328.00
2022-09-27T05:56:07.693Z,3132.00
2022-09-27T05:57:07.680Z,3268.00
2022-09-27T05:58:07.690Z,3552.00
2022-09-27T05:59:07.652Z,3832.00
2022-09-27T06:00:07.666Z,4216.00
2022-09-27T06:01:07.614Z,4884.00
2022-09-27T06:02:07.714Z,5756.00
2022-09-27T06:03:07.696Z,6600.00
2022-09-27T06:04:07.596Z,7220.00
2022-09-27T06:05:07.576Z,7440.00
2022-09-27T06:06:07.576Z,7316.00
2022-09-27T06:07:07.555Z,6952.00
2022-09-27T06:08:07.605Z,6508.00
2022-09-27T06:09:07.534Z,6220.00
2022-09-27T06:10:07.530Z,6080.00
2022-09-27T06:11:07.513Z,6048.00
2022-09-27T06:12:07.497Z,6144.00
2022-09-27T06:13:07.544Z,6060.00
2022-09-27T06:14:07.481Z,5564.00
2022-09-27T06:15:07.450Z,4940.00
2022-09-27T06:16:07.457Z,4392.00
2022-09-27T06:17:07.435Z,3976.00
2022-09-27T06:18:07.469Z,3688.00
2022-09-27T06:19:07.420Z,3460.00
2022-09-27T06:20:07.414Z,3492.00
2022-09-27T06:21:07.389Z,3628.00
2022-09-27T06:22:07.437Z,3692.00
2022-09-27T06:23:07.361Z,3840.00
2022-09-27T06:24:07.347Z,4176.00
2022-09-27T06:25:07.336Z,4664.00
2022-09-27T06:26:07.337Z,5120.00
2022-09-27T06:27:07.359Z,5404.00
2022-09-27T06:28:07.329Z,5408.00
2022-09-27T06:29:07.317Z,5248.00
2022-09-27T06:30:07.294Z,5068.00
2022-09-27T06:31:07.295Z,4936.00
2022-09-27T06:32:07.306Z,4616.00
2022-09-27T06:33:07.266Z,4268.00
2022-09-27T06:34:07.271Z,4328.00
2022-09-27T06:35:07.231Z,4676.00
2022-09-27T06:36:07.347Z,5064.00
2022-09-27T06:37:07.289Z,5256.00
2022-09-27T06:38:07.229Z,5156.00
2022-09-27T06:39:07.195Z,5056.00
2022-09-27T06:40:07.214Z,5008.00
2022-09-27T06:41:07.200Z,4940.00
2022-09-27T06:42:07.153Z,4824.00
2022-09-27T06:43:07.185Z,4572.00
2022-09-27T06:44:07.142Z,4260.00
2022-09-27T06:45:07.106Z,4152.00
2022-09-27T06:46:07.191Z,4220.00
2022-09-27T06:47:07.093Z,4404.00
2022-09-27T06:48:07.131Z,4564.00
2022-09-27T06:49:07.072Z,4572.00
2022-09-27T06:50:07.083Z,4452.00
2022-09-27T06:51:07.052Z,4388.00
2022-09-27T06:52:07.065Z,4516.00
2022-09-27T06:53:07.099Z,4860.00
2022-09-27T06:54:07.076Z,5392.00
2022-09-27T06:55:07.015Z,6108.00
2022-09-27T06:56:07.023Z,6884.00
2022-09-27T06:57:07.001Z,7668.00
2022-09-27T06:58:07.037Z,8296.00
2022-09-27T06:59:06.974Z,8680.00
2022-09-27T07:00:06.962Z,8832.00
2022-09-27T07:01:07.035Z,8888.00
2022-09-27T07:02:07.038Z,8892.00
2022-09-27T07:03:06.966Z,8836.00
2022-09-27T07:04:06.933Z,8796.00
2022-09-27T07:05:06.908Z,8820.00
2022-09-27T07:06:06.898Z,8860.00
2022-09-27T07:07:06.972Z,8860.00
2022-09-27T07:08:06.915Z,8740.00
2022-09-27T07:09:06.864Z,8544.00
2022-09-27T07:10:09.891Z,8284.00
2022-09-27T07:11:06.843Z,7992.00
2022-09-27T07:12:06.838Z,7756.00
2022-09-27T07:13:06.835Z,7620.00
2022-09-27T07:14:06.793Z,7596.00
2022-09-27T07:15:06.775Z,7668.00
2022-09-27T07:16:06.798Z,7824.00
2022-09-27T07:17:06.789Z,7912.00
2022-09-27T07:18:06.801Z,7844.00
2022-09-27T07:19:06.738Z,7688.00
2022-09-27T07:20:06.754Z,7640.00
2022-09-27T07:21:06.711Z,7628.00
2022-09-27T07:22:06.713Z,7484.00
2022-09-27T07:23:06.750Z,7340.00
2022-09-27T07:24:06.673Z,7284.00
2022-09-27T07:25:06.661Z,7296.00
2022-09-27T07:26:06.682Z,7372.00
2022-09-27T07:27:06.641Z,7536.00
2022-09-27T07:28:06.686Z,7620.00
2022-09-27T07:29:06.640Z,7560.00
2022-09-27T07:30:06.616Z,7208.00
2022-09-27T07:31:06.658Z,6792.00
2022-09-27T07:32:06.575Z,6500.00
2022-09-27T07:33:06.639Z,6260.00
2022-09-27T07:34:06.596Z,5988.00
2022-09-27T07:35:06.603Z,5564.00
2022-09-27T07:36:06.558Z,5056.00
2022-09-27T07:37:06.547Z,4624.00
2022-09-27T07:38:06.608Z,4688.00
2022-09-27T07:39:06.525Z,5780.00
2022-09-27T07:40:06.520Z,6556.00
2022-09-27T07:41:06.489Z,6100.00
2022-09-27T07:42:06.478Z,5312.00
2022-09-27T07:43:06.491Z,4744.00
2022-09-27T07:44:06.474Z,4584.00
2022-09-27T07:45:09.141Z,4836.00
2022-09-27T07:46:06.482Z,5312.00
2022-09-27T07:47:06.433Z,5760.00
2022-09-27T07:48:06.466Z,6088.00
2022-09-27T07:49:06.423Z,6496.00
2022-09-27T07:50:06.409Z,7052.00
2022-09-27T07:51:06.386Z,7472.00
2022-09-27T07:52:06.371Z,7804.00
2022-09-27T07:53:06.402Z,8608.00
2022-09-27T07:54:08.738Z,10516.00
2022-09-27T07:55:06.329Z,13168.00
2022-09-27T07:56:06.368Z,15296.00
2022-09-27T07:57:06.319Z,16404.00
2022-09-27T07:58:06.359Z,16852.00
2022-09-27T07:59:06.294Z,17076.00
2022-09-27T08:00:06.284Z,16992.00
2022-09-27T08:01:06.327Z,17020.00
2022-09-27T08:02:06.270Z,17440.00
2022-09-27T08:03:06.290Z,18624.00
2022-09-27T08:04:06.232Z,19648.00
2022-09-27T08:05:06.208Z,20320.00
2022-09-27T08:06:06.218Z,20608.00
2022-09-27T08:07:06.193Z,20384.00
2022-09-27T08:08:06.240Z,19776.00
2022-09-27T08:09:06.184Z,18880.00
2022-09-27T08:10:06.184Z,17856.00
2022-09-27T08:11:06.186Z,17536.00
2022-09-27T08:12:06.139Z,17356.00
2022-09-27T08:13:06.160Z,16564.00
2022-09-27T08:14:06.121Z,15084.00
2022-09-27T08:15:06.099Z,13892.00
2022-09-27T08:16:06.157Z,13692.00
2022-09-27T08:17:06.096Z,14444.00
2022-09-27T08:18:06.135Z,15576.00
2022-09-27T08:19:06.067Z,16552.00
2022-09-27T08:20:06.072Z,17068.00
2022-09-27T08:21:06.030Z,16800.00
2022-09-27T08:22:06.043Z,15900.00
2022-09-27T08:23:06.136Z,15124.00
2022-09-27T08:24:06.033Z,14512.00
2022-09-27T08:25:06.012Z,14412.00
2022-09-27T08:26:06.012Z,14940.00
2022-09-27T08:27:10.743Z,15580.00
2022-09-27T08:28:07.014Z,16260.00
2022-09-27T08:29:05.959Z,17164.00
2022-09-27T08:30:05.946Z,18624.00
2022-09-27T08:31:05.928Z,20448.00
2022-09-27T08:32:05.919Z,22400.00
2022-09-27T08:33:05.941Z,23296.00
2022-09-27T08:34:05.932Z,23872.00
2022-09-27T08:35:05.881Z,23520.00
2022-09-27T08:36:05.902Z,23360.00
2022-09-27T08:37:05.864Z,24448.00
2022-09-27T08:38:05.941Z,26016.00
2022-09-27T08:39:05.841Z,27232.00
2022-09-27T08:40:05.816Z,28096.00
2022-09-27T08:41:05.815Z,28672.00
2022-09-27T08:42:05.800Z,28992.00
2022-09-27T08:43:05.826Z,29152.00
2022-09-27T08:44:05.771Z,29088.00
2022-09-27T08:45:05.771Z,28512.00
2022-09-27T08:46:05.770Z,27168.00
2022-09-27T08:47:05.805Z,25568.00
2022-09-27T08:48:05.768Z,24416.00
2022-09-27T08:49:05.718Z,23840.00
2022-09-27T08:50:05.827Z,23424.00
2022-09-27T08:51:05.700Z,23008.00
2022-09-27T08:52:05.748Z,21792.00
2022-09-27T08:53:05.684Z,21344.00
2022-09-27T08:54:05.710Z,22080.00
2022-09-27T08:55:05.667Z,24032.00
2022-09-27T08:56:05.665Z,26688.00
2022-09-27T08:57:05.669Z,29120.00
2022-09-27T08:58:05.616Z,30464.00
2022-09-27T08:59:05.624Z,30656.00
2022-09-27T09:00:05.592Z,29728.00
2022-09-27T09:01:05.654Z,27520.00
2022-09-27T09:02:05.672Z,24256.00
2022-09-27T09:03:05.571Z,21600.00
2022-09-27T09:04:05.545Z,19808.00
2022-09-27T09:05:05.528Z,18016.00
2022-09-27T09:06:05.521Z,16744.00
2022-09-27T09:07:05.521Z,15884.00
2022-09-27T09:08:05.557Z,16216.00
2022-09-27T09:09:05.491Z,17984.00
2022-09-27T09:10:05.475Z,18848.00
2022-09-27T09:11:05.458Z,19104.00
2022-09-27T09:12:05.451Z,19456.00
2022-09-27T09:13:05.496Z,20224.00
2022-09-27T09:14:06.772Z,21248.00
2022-09-27T09:15:05.434Z,22464.00
2022-09-27T09:16:05.528Z,23744.00
2022-09-27T09:17:05.405Z,24704.00
2022-09-27T09:18:05.465Z,24928.00
2022-09-27T09:19:05.379Z,25312.00
2022-09-27T09:20:05.383Z,26016.00
2022-09-27T09:21:05.353Z,25312.00
2022-09-27T09:22:05.360Z,23328.00
2022-09-27T09:23:05.390Z,20576.00
2022-09-27T09:24:05.371Z,18240.00
2022-09-27T09:25:05.321Z,17952.00
2022-09-27T09:26:05.318Z,19200.00
2022-09-27T09:27:05.300Z,19008.00
2022-09-27T09:28:05.331Z,17308.00
2022-09-27T09:29:05.288Z,19392.00
2022-09-27T09:30:05.254Z,22144.00
2022-09-27T09:31:05.267Z,22880.00
2022-09-27T09:32:05.275Z,20736.00
2022-09-27T09:33:05.272Z,18080.00
2022-09-27T09:34:05.197Z,14732.00
2022-09-27T09:35:05.186Z,17116.00
2022-09-27T09:36:05.176Z,23328.00
2022-09-27T09:37:05.177Z,25568.00
2022-09-27T09:38:05.209Z,25376.00
2022-09-27T09:39:05.173Z,25888.00
2022-09-27T09:40:08.870Z,27840.00
2022-09-27T09:41:05.155Z,30624.00
2022-09-27T09:42:05.141Z,32416.00
2022-09-27T09:43:05.188Z,32256.00
2022-09-27T09:44:05.101Z,32096.00
2022-09-27T09:45:05.089Z,28768.00
2022-09-27T09:46:05.109Z,26752.00
2022-09-27T09:47:05.076Z,25984.00
2022-09-27T09:48:05.125Z,25504.00
2022-09-27T09:49:05.059Z,24544.00
2022-09-27T09:50:05.031Z,22816.00
2022-09-27T09:51:05.015Z,21120.00
2022-09-27T09:52:08.786Z,19424.00
2022-09-27T09:53:05.042Z,18464.00
2022-09-27T09:54:04.995Z,18784.00
2022-09-27T09:55:05.029Z,19360.00
2022-09-27T09:56:04.985Z,20032.00
2022-09-27T09:57:04.975Z,20928.00
2022-09-27T09:58:04.999Z,22368.00
2022-09-27T09:59:04.944Z,24576.00
2022-09-27T10:00:04.917Z,27168.00
2022-09-27T10:01:04.968Z,29696.00
2022-09-27T10:02:04.968Z,33216.00
2022-09-27T10:03:04.936Z,34336.00
2022-09-27T10:04:04.886Z,35168.00
2022-09-27T10:05:07.865Z,35168.00
2022-09-27T10:06:04.836Z,34432.00
2022-09-27T10:07:04.854Z,31840.00
2022-09-27T10:08:04.876Z,28704.00
2022-09-27T10:09:04.858Z,26048.00
2022-09-27T10:10:04.816Z,23680.00
2022-09-27T10:11:04.795Z,21792.00
2022-09-27T10:12:04.810Z,20544.00
2022-09-27T10:13:04.833Z,20032.00
2022-09-27T10:14:04.778Z,20384.00
2022-09-27T10:15:04.755Z,21728.00
2022-09-27T10:16:04.756Z,23808.00
2022-09-27T10:17:04.729Z,26240.00
2022-09-27T10:18:04.771Z,28832.00
2022-09-27T10:19:04.841Z,31104.00
2022-09-27T10:20:04.694Z,32896.00
2022-09-27T10:21:04.693Z,33984.00
2022-09-27T10:22:04.673Z,33728.00
2022-09-27T10:23:04.711Z,31552.00
2022-09-27T10:24:04.659Z,27712.00
2022-09-27T10:25:04.652Z,25216.00
2022-09-27T10:26:04.633Z,25536.00
2022-09-27T10:27:04.628Z,27936.00
2022-09-27T10:28:04.667Z,29664.00
2022-09-27T10:29:04.602Z,31136.00
2022-09-27T10:30:04.608Z,32832.00
2022-09-27T10:31:04.581Z,36544.00
2022-09-27T10:32:04.563Z,60768.00
2022-09-27T10:33:04.599Z,66272.00
2022-09-27T10:34:04.517Z,65344.00
2022-09-27T10:35:04.536Z,52384.00
2022-09-27T10:36:04.506Z,54176.00
2022-09-27T10:37:04.503Z,53792.00
2022-09-27T10:38:04.559Z,46016.00
2022-09-27T10:39:04.492Z,31360.00
2022-09-27T10:40:04.471Z,28416.00
2022-09-27T10:41:04.462Z,29856.00
2022-09-27T10:42:04.462Z,31584.00
2022-09-27T10:43:04.494Z,32832.00
2022-09-27T10:44:04.440Z,33376.00
2022-09-27T10:45:04.417Z,33216.00
2022-09-27T10:46:04.445Z,30944.00
2022-09-27T10:47:04.388Z,28512.00
2022-09-27T10:48:04.443Z,26304.00
2022-09-27T10:49:04.382Z,25984.00
2022-09-27T10:50:04.357Z,25376.00
2022-09-27T10:51:04.345Z,22752.00
2022-09-27T10:52:04.347Z,19136.00
2022-09-27T10:53:04.385Z,16012.00
2022-09-27T10:54:04.363Z,13492.00
2022-09-27T10:55:04.326Z,11664.00
2022-09-27T10:56:04.305Z,10292.00
2022-09-27T10:57:04.295Z,9836.00
2022-09-27T10:58:04.318Z,9448.00
2022-09-27T10:59:04.266Z,8068.00
2022-09-27T11:00:04.265Z,6148.00
2022-09-27T11:01:04.295Z,4728.00
2022-09-27T11:02:04.245Z,3812.00
2022-09-27T11:03:04.275Z,3472.00
2022-09-27T11:04:04.189Z,4056.00
2022-09-27T11:05:04.214Z,5008.00
2022-09-27T11:06:04.175Z,5380.00
2022-09-27T11:07:04.175Z,5284.00
2022-09-27T11:08:04.237Z,4684.00
2022-09-27T11:09:04.168Z,3980.00
2022-09-27T11:10:04.142Z,3440.00
2022-09-27T11:11:04.150Z,3292.00
2022-09-27T11:12:04.116Z,3200.00
2022-09-27T11:13:04.159Z,3288.00
2022-09-27T11:14:04.095Z,3540.00
2022-09-27T11:15:04.081Z,3920.00
2022-09-27T11:16:04.133Z,4512.00
2022-09-27T11:17:04.075Z,5188.00
2022-09-27T11:18:04.078Z,6428.00
2022-09-27T11:19:04.035Z,7536.00
2022-09-27T11:20:04.013Z,8172.00
2022-09-27T11:21:04.024Z,8752.00
2022-09-27T11:22:04.007Z,9204.00
2022-09-27T11:23:04.027Z,9344.00
2022-09-27T11:24:03.974Z,9716.00
2022-09-27T11:25:03.990Z,10688.00
2022-09-27T11:26:03.952Z,12976.00
2022-09-27T11:27:03.937Z,16724.00
2022-09-27T11:28:03.981Z,20960.00
2022-09-27T11:29:03.925Z,23264.00
2022-09-27T11:30:03.911Z,23136.00
2022-09-27T11:31:03.934Z,23264.00
2022-09-27T11:32:03.939Z,25504.00
2022-09-27T11:33:03.932Z,29984.00
2022-09-27T11:34:03.855Z,34592.00
2022-09-27T11:35:03.847Z,36352.00
2022-09-27T11:36:03.827Z,35200.00
2022-09-27T11:37:03.876Z,32768.00
2022-09-27T11:38:03.817Z,29856.00
2022-09-27T11:39:03.828Z,26400.00
2022-09-27T11:40:03.833Z,23680.00
2022-09-27T11:41:03.806Z,22720.00
2022-09-27T11:42:03.833Z,23808.00
2022-09-27T11:43:03.765Z,25888.00
2022-09-27T11:44:03.744Z,27584.00
2022-09-27T11:45:30.390Z,28672.00
2022-09-27T11:46:19.164Z,29536.00
2022-09-27T11:47:04.850Z,29056.00
2022-09-27T11:48:03.828Z,28224.00
2022-09-27T11:49:03.702Z,27360.00
2022-09-27T11:50:03.686Z,26784.00
2022-09-27T11:51:03.683Z,26592.00
2022-09-27T11:52:03.709Z,26944.00
2022-09-27T11:53:03.665Z,27456.00
2022-09-27T11:54:03.651Z,27520.00
2022-09-27T11:55:03.640Z,26720.00
2022-09-27T11:56:03.619Z,25216.00
2022-09-27T11:57:03.662Z,23168.00
2022-09-27T11:58:03.610Z,20640.00
2022-09-27T11:59:03.605Z,17484.00
2022-09-27T12:00:03.579Z,14476.00
2022-09-27T12:01:03.554Z,11984.00
2022-09-27T12:02:03.706Z,9604.00
2022-09-27T12:03:03.582Z,6948.00
2022-09-27T12:04:03.531Z,4508.00
2022-09-27T12:05:03.524Z,4088.00
2022-09-27T12:06:07.320Z,4584.00
2022-09-27T12:07:03.533Z,4252.00
2022-09-27T12:08:03.476Z,5772.00
2022-09-27T12:09:03.481Z,6608.00
2022-09-27T12:10:03.461Z,6972.00
2022-09-27T12:11:03.445Z,7548.00
2022-09-27T12:12:03.484Z,8600.00
2022-09-27T12:13:03.419Z,9812.00
2022-09-27T12:14:03.418Z,11432.00
2022-09-27T12:15:06.943Z,13320.00
2022-09-27T12:16:03.417Z,15868.00
2022-09-27T12:17:03.380Z,18752.00
2022-09-27T12:18:03.400Z,21760.00
2022-09-27T12:19:03.352Z,24224.00
2022-09-27T12:20:03.334Z,25984.00
2022-09-27T12:21:03.331Z,27456.00
2022-09-27T12:22:03.338Z,28800.00
2022-09-27T12:23:03.353Z,29760.00
2022-09-27T12:24:03.329Z,30944.00
2022-09-27T12:25:03.300Z,32960.00